Time;durP1;ratioP1;P1;durP2;ratioP2;P2;SDS_P1;SDS_P2;PMS_P1;PMS_P2;Temp;Humidity;BMP_temperature;BMP_pressure;BME280_temperature;BME280_humidity;BME280_pressure;Samples;Min_cycle;Max_cycle;Signal;HPM_P1;HPM_P2
2022/03/14 00:00:17;;;;;;;5.80;4.60;;;10.70;93.60;;;;;;5047898;28;20826;-53
2022/03/14 00:02:46;;;;;;;6.20;4.17;;;10.50;93.70;;;;;;5053875;28;20482;-52
2022/03/14 00:05:15;;;;;;;14.80;7.07;;;10.40;94.30;;;;;;5059103;28;20663;-51
2022/03/14 00:07:44;;;;;;;5.80;5.20;;;10.40;94.60;;;;;;5057544;28;20581;-51
2022/03/14 00:10:12;;;;;;;5.83;4.93;;;10.40;94.70;;;;;;5060847;28;20951;-50
2022/03/14 00:12:39;;;;;;;7.53;5.57;;;10.20;94.60;;;;;;5067039;28;20872;-50
2022/03/14 00:15:11;;;;;;;6.60;5.87;;;10.20;94.80;;;;;;5063455;28;20485;-50
2022/03/14 00:17:38;;;;;;;7.00;5.70;;;10.10;95.20;;;;;;5066187;28;21040;-51
2022/03/14 00:20:10;;;;;;;5.67;4.67;;;10.00;94.90;;;;;;5060515;28;20494;-51
2022/03/14 00:22:37;;;;;;;3.90;3.10;;;10.10;94.90;;;;;;5060721;28;20490;-51
2022/03/14 00:25:05;;;;;;;23.93;4.03;;;10.00;94.70;;;;;;5064158;28;21023;-50
2022/03/14 00:27:32;;;;;;;4.30;3.90;;;9.90;95.30;;;;;;5065669;28;20506;-51
2022/03/14 00:29:59;;;;;;;3.17;2.63;;;9.80;95.40;;;;;;5060281;28;20487;-52
2022/03/14 00:32:25;;;;;;;12.50;2.77;;;9.70;95.60;;;;;;5067610;28;20562;-51
2022/03/14 00:34:52;;;;;;;3.13;2.47;;;9.70;95.50;;;;;;5067522;28;20485;-53
2022/03/14 00:37:20;;;;;;;3.10;2.80;;;9.60;95.70;;;;;;5067738;28;20474;-52
2022/03/14 00:39:47;;;;;;;10.13;2.70;;;9.60;95.70;;;;;;5062712;28;21022;-53
2022/03/14 00:42:14;;;;;;;4.10;2.90;;;9.60;95.80;;;;;;5063301;28;20663;-53
2022/03/14 00:44:41;;;;;;;6.30;4.60;;;9.60;96.00;;;;;;5063806;28;20991;-52
2022/03/14 00:47:08;;;;;;;11.63;3.63;;;9.60;95.70;;;;;;5060408;28;20480;-51
2022/03/14 00:49:36;;;;;;;3.60;2.80;;;9.60;96.10;;;;;;5050915;28;20577;-50
2022/03/14 00:52:03;;;;;;;2.37;1.97;;;9.50;96.20;;;;;;5057417;28;20489;-50
2022/03/14 00:54:32;;;;;;;7.70;3.33;;;9.50;96.50;;;;;;5060894;28;20489;-51
2022/03/14 00:56:59;;;;;;;3.70;3.00;;;9.60;96.60;;;;;;5058865;28;20494;-51
2022/03/14 00:59:27;;;;;;;4.83;2.80;;;9.50;96.50;;;;;;5058360;28;20491;-51
2022/03/14 01:01:54;;;;;;;9.20;3.33;;;9.50;96.90;;;;;;5045360;28;20489;-48
2022/03/14 01:04:21;;;;;;;3.87;2.90;;;9.40;96.80;;;;;;5072605;28;20493;-49
2022/03/14 01:06:48;;;;;;;4.03;3.13;;;9.40;96.50;;;;;;5058514;28;20476;-47
2022/03/14 01:09:15;;;;;;;10.47;3.90;;;9.40;96.90;;;;;;5059409;28;20484;-49
2022/03/14 01:11:43;;;;;;;2.97;2.50;;;9.40;97.10;;;;;;5058745;28;20516;-49
2022/03/14 01:14:10;;;;;;;4.37;3.77;;;9.40;97.10;;;;;;5061605;28;20501;-50
2022/03/14 01:16:37;;;;;;;10.20;3.00;;;9.30;97.20;;;;;;5060357;28;20490;-49
2022/03/14 01:19:04;;;;;;;3.30;2.07;;;9.30;97.10;;;;;;5066759;28;20548;-49
2022/03/14 01:21:31;;;;;;;2.20;1.80;;;9.40;96.90;;;;;;5061660;28;20477;-48
2022/03/14 01:23:59;;;;;;;4.73;2.03;;;9.40;96.90;;;;;;5056681;28;21064;-50
2022/03/14 01:26:26;;;;;;;3.20;2.43;;;9.40;96.70;;;;;;5061438;28;20553;-48
2022/03/14 01:28:54;;;;;;;2.17;1.53;;;9.40;96.80;;;;;;5049548;28;20492;-48
2022/03/14 01:31:21;;;;;;;9.33;2.10;;;9.30;96.90;;;;;;5072935;28;20971;-48
2022/03/14 01:33:47;;;;;;;2.80;1.87;;;9.20;97.00;;;;;;5059509;28;20470;-48
2022/03/14 01:36:14;;;;;;;2.87;2.30;;;9.30;97.10;;;;;;5056250;28;20472;-48
2022/03/14 01:38:41;;;;;;;8.40;2.00;;;9.20;97.10;;;;;;5060020;28;20494;-48
2022/03/14 01:41:08;;;;;;;2.50;1.90;;;9.30;96.80;;;;;;5060849;28;20486;-48
2022/03/14 01:43:35;;;;;;;2.50;1.87;;;9.30;97.30;;;;;;5061091;28;20491;-48
2022/03/14 01:46:04;;;;;;;8.97;3.00;;;9.20;97.10;;;;;;5062022;28;20488;-48
2022/03/14 01:48:30;;;;;;;1.80;1.00;;;9.20;97.20;;;;;;5061804;28;20508;-49
2022/03/14 01:50:57;;;;;;;2.90;1.93;;;9.20;97.10;;;;;;5057526;28;20481;-49
2022/03/14 01:53:26;;;;;;;9.83;2.70;;;9.30;97.30;;;;;;5061516;28;20490;-48
2022/03/14 01:55:54;;;;;;;2.03;1.80;;;9.20;97.30;;;;;;5060393;28;20473;-48
2022/03/14 01:58:21;;;;;;;3.07;1.90;;;9.20;97.20;;;;;;5060510;28;20516;-48
2022/03/14 02:00:48;;;;;;;3.73;2.83;;;9.20;97.00;;;;;;5058002;28;20482;-48
2022/03/14 02:03:16;;;;;;;2.97;1.97;;;9.20;97.30;;;;;;5057513;28;20477;-48
2022/03/14 02:05:47;;;;;;;2.37;1.53;;;;;;;;;;5048486;28;20485;-48
2022/03/14 02:08:14;;;;;;;4.77;2.73;;;9.20;97.50;;;;;;5053425;28;20893;-48
2022/03/14 02:10:40;;;;;;;2.20;1.70;;;9.20;97.60;;;;;;5074461;28;20493;-48
2022/03/14 02:13:09;;;;;;;6.87;2.60;;;9.20;97.70;;;;;;5059687;28;20490;-48
2022/03/14 02:15:36;;;;;;;2.90;2.60;;;9.20;97.50;;;;;;5057136;28;20474;-48
2022/03/14 02:18:03;;;;;;;4.87;2.57;;;9.20;97.50;;;;;;5061955;28;21039;-53
2022/03/14 02:20:31;;;;;;;3.53;3.10;;;9.20;97.60;;;;;;5060304;28;20886;-47
2022/03/14 02:22:58;;;;;;;3.30;3.00;;;9.20;97.40;;;;;;5063967;28;20474;-48
2022/03/14 02:25:25;;;;;;;5.43;4.63;;;9.20;97.70;;;;;;5059402;28;20480;-48
2022/03/14 02:27:53;;;;;;;3.87;3.53;;;9.30;97.70;;;;;;5059957;28;20518;-48
2022/03/14 02:30:19;;;;;;;5.13;4.63;;;9.30;97.50;;;;;;5052509;28;20486;-48
2022/03/14 02:32:46;;;;;;;4.70;4.20;;;9.20;97.80;;;;;;5063003;28;21048;-49
2022/03/14 02:35:14;;;;;;;13.10;4.30;;;9.30;97.60;;;;;;5060107;28;20479;-48
2022/03/14 02:37:44;;;;;;;5.17;4.67;;;9.30;97.60;;;;;;5060496;28;20572;-49
2022/03/14 02:40:10;;;;;;;5.70;4.17;;;9.20;97.50;;;;;;5053555;28;20577;-49
2022/03/14 02:42:38;;;;;;;15.30;3.70;;;9.20;97.30;;;;;;5062778;28;20486;-49
2022/03/14 02:45:05;;;;;;;3.90;3.23;;;9.20;97.30;;;;;;5061127;28;20482;-49
2022/03/14 02:47:32;;;;;;;3.10;2.43;;;9.20;97.10;;;;;;5060127;28;20559;-49
2022/03/14 02:50:00;;;;;;;7.50;2.40;;;9.20;97.20;;;;;;5056435;28;20482;-49
2022/03/14 02:52:27;;;;;;;2.50;1.60;;;9.20;96.70;;;;;;5060383;28;20518;-48
2022/03/14 02:54:55;;;;;;;3.03;2.57;;;9.20;96.90;;;;;;5060320;28;20492;-49
2022/03/14 02:57:22;;;;;;;7.00;2.50;;;9.20;96.90;;;;;;5056154;28;20501;-49
2022/03/14 02:59:49;;;;;;;6.67;3.07;;;9.20;96.90;;;;;;5058534;28;20486;-50
2022/03/14 03:02:18;;;;;;;5.73;3.17;;;9.20;97.00;;;;;;5059116;28;20540;-50
2022/03/14 03:04:44;;;;;;;9.43;3.30;;;9.20;96.80;;;;;;5055107;28;20500;-47
2022/03/14 03:07:11;;;;;;;3.23;2.37;;;9.30;96.90;;;;;;5058249;28;20489;-48
2022/03/14 03:09:38;;;;;;;2.50;2.10;;;9.20;97.10;;;;;;5056316;28;20486;-49
2022/03/14 03:12:12;;;;;;;8.90;3.00;;;9.10;96.90;;;;;;5056106;28;20477;-47
2022/03/14 03:14:38;;;;;;;3.03;1.70;;;9.10;96.80;;;;;;5057845;28;20518;-48
2022/03/14 03:17:06;;;;;;;2.57;2.07;;;9.20;96.70;;;;;;5052401;28;20528;-47
2022/03/14 03:19:33;;;;;;;2.80;1.70;;;9.10;96.90;;;;;;5066762;28;20811;-49
2022/03/14 03:22:00;;;;;;;4.10;2.70;;;9.10;96.60;;;;;;5057676;28;20548;-48
2022/03/14 03:24:26;;;;;;;4.10;2.67;;;9.10;96.50;;;;;;5063607;28;20523;-47
2022/03/14 03:26:53;;;;;;;3.17;2.50;;;9.20;96.50;;;;;;5058355;28;20789;-48
2022/03/14 03:29:22;;;;;;;5.30;2.40;;;9.10;96.40;;;;;;5060279;28;20475;-49
2022/03/14 03:31:49;;;;;;;2.13;1.90;;;9.20;96.50;;;;;;5058291;28;20474;-48
2022/03/14 03:34:16;;;;;;;7.57;2.47;;;9.20;96.50;;;;;;5058086;28;20565;-49
2022/03/14 03:36:43;;;;;;;3.27;1.67;;;9.10;96.70;;;;;;5048769;28;20666;-49
2022/03/14 03:39:10;;;;;;;3.40;2.60;;;;;;;;;;5069047;28;20486;-49
2022/03/14 03:41:38;;;;;;;6.10;2.50;;;9.10;96.60;;;;;;5037539;28;20473;-49
2022/03/14 03:44:05;;;;;;;2.20;1.60;;;9.10;96.70;;;;;;5055882;28;20901;-49
2022/03/14 03:46:34;;;;;;;4.53;3.23;;;9.10;96.70;;;;;;5061866;28;20459;-49
2022/03/14 03:49:00;;;;;;;3.87;2.23;;;9.10;96.70;;;;;;5060216;28;20847;-48
2022/03/14 03:51:27;;;;;;;4.50;3.37;;;9.00;97.00;;;;;;5057638;28;20489;-49
2022/03/14 03:53:54;;;;;;;4.87;3.67;;;9.10;96.90;;;;;;5071629;28;20485;-49
2022/03/14 03:56:20;;;;;;;4.97;3.70;;;9.10;96.70;;;;;;5059990;28;20476;-49
2022/03/14 03:58:47;;;;;;;5.80;3.77;;;9.00;96.60;;;;;;5061082;28;20845;-49
2022/03/14 04:01:19;;;;;;;5.83;2.10;;;8.90;96.20;;;;;;5064124;28;20489;-53
2022/03/14 04:03:54;;;;;;;6.40;1.83;;;8.90;96.10;;;;;;5053096;28;20484;-49
2022/03/14 04:06:25;;;;;;;5.40;2.00;;;8.90;96.00;;;;;;5059968;28;20485;-49
2022/03/14 04:08:52;;;;;;;7.53;1.97;;;8.90;96.10;;;;;;5060850;28;20484;-49
2022/03/14 04:11:20;;;;;;;5.60;2.37;;;8.90;96.10;;;;;;5055136;28;20491;-49
2022/03/14 04:13:48;;;;;;;2.67;1.77;;;8.90;96.30;;;;;;5056139;28;20486;-49
2022/03/14 04:16:18;;;;;;;3.97;1.90;;;8.90;96.00;;;;;;5058669;28;20550;-49
2022/03/14 04:18:46;;;;;;;3.87;2.27;;;8.90;96.30;;;;;;5057036;28;20502;-48
2022/03/14 04:21:14;;;;;;;14.60;2.47;;;8.90;96.40;;;;;;5064765;28;20489;-49
2022/03/14 04:23:41;;;;;;;7.67;2.43;;;8.80;96.10;;;;;;5049729;28;20482;-49
2022/03/14 04:26:07;;;;;;;5.60;1.97;;;8.80;96.20;;;;;;5049755;28;20527;-48
2022/03/14 04:28:36;;;;;;;14.23;2.10;;;8.80;96.20;;;;;;5064960;28;20515;-49
2022/03/14 04:31:03;;;;;;;9.63;3.53;;;8.90;96.10;;;;;;5064607;28;20492;-50
2022/03/14 04:33:30;;;;;;;6.50;3.20;;;8.90;96.00;;;;;;5062161;28;20869;-49
2022/03/14 04:35:59;;;;;;;10.80;3.37;;;8.80;96.10;;;;;;5062960;28;20489;-50
2022/03/14 04:38:25;;;;;;;4.80;2.17;;;8.70;96.30;;;;;;5059854;28;20567;-51
2022/03/14 04:40:52;;;;;;;5.03;2.30;;;8.60;96.40;;;;;;5066826;28;20484;-49
2022/03/14 04:43:21;;;;;;;27.20;3.27;;;8.70;96.50;;;;;;5055658;28;20484;-49
2022/03/14 04:45:49;;;;;;;5.57;3.13;;;8.70;96.30;;;;;;5058542;28;20517;-50
2022/03/14 04:48:16;;;;;;;9.13;4.20;;;8.60;96.50;;;;;;5067908;28;20572;-49
2022/03/14 04:50:43;;;;;;;23.03;3.30;;;8.60;96.70;;;;;;5056414;28;20482;-49
2022/03/14 04:53:11;;;;;;;6.43;3.10;;;8.60;96.50;;;;;;5059831;28;20501;-50
2022/03/14 04:55:38;;;;;;;11.00;3.40;;;8.70;96.60;;;;;;5059047;28;20883;-50
2022/03/14 04:58:05;;;;;;;7.63;2.93;;;8.60;96.60;;;;;;5060664;28;21260;-51
2022/03/14 05:00:33;;;;;;;9.10;2.60;;;8.70;96.50;;;;;;5044883;28;20539;-49
2022/03/14 05:03:01;;;;;;;7.07;3.30;;;8.70;96.50;;;;;;5069922;28;20562;-49
2022/03/14 05:05:28;;;;;;;10.67;2.90;;;8.70;96.50;;;;;;5034803;28;20735;-49
2022/03/14 05:07:55;;;;;;;7.40;3.60;;;8.80;96.30;;;;;;5053509;28;20538;-55
2022/03/14 05:10:23;;;;;;;4.27;3.50;;;8.80;96.40;;;;;;5058707;28;20542;-48
2022/03/14 05:12:50;;;;;;;9.60;4.03;;;8.80;96.60;;;;;;5060731;28;21410;-49
2022/03/14 05:15:17;;;;;;;7.87;3.30;;;8.80;96.50;;;;;;5065860;28;20553;-48
2022/03/14 05:17:44;;;;;;;6.80;3.50;;;8.70;96.50;;;;;;5062876;28;20485;-48
2022/03/14 05:20:12;;;;;;;10.37;4.00;;;8.70;96.70;;;;;;5059804;28;20556;-49
2022/03/14 05:22:43;;;;;;;11.07;4.17;;;8.70;96.70;;;;;;5062582;28;20497;-48
2022/03/14 05:25:10;;;;;;;9.60;4.93;;;8.70;96.60;;;;;;5066364;28;20478;-50
2022/03/14 05:27:39;;;;;;;10.03;3.27;;;8.60;96.90;;;;;;5063336;28;20556;-48
2022/03/14 05:30:08;;;;;;;9.80;3.30;;;8.60;97.00;;;;;;5059437;28;20478;-50
2022/03/14 05:32:35;;;;;;;4.13;3.03;;;8.50;96.90;;;;;;5061227;28;20611;-50
2022/03/14 05:35:02;;;;;;;11.40;4.03;;;8.60;96.90;;;;;;5060000;28;20482;-49
2022/03/14 05:37:29;;;;;;;17.60;5.30;;;8.50;96.80;;;;;;5060958;28;20465;-49
2022/03/14 05:39:56;;;;;;;8.50;3.97;;;8.40;97.00;;;;;;5060987;28;20507;-49
2022/03/14 05:42:23;;;;;;;6.60;3.07;;;8.50;97.10;;;;;;5050108;28;20549;-50
2022/03/14 05:44:51;;;;;;;7.20;3.40;;;8.40;97.00;;;;;;5073315;28;21220;-48
2022/03/14 05:47:19;;;;;;;10.27;3.30;;;8.50;97.20;;;;;;5059416;28;20477;-48
2022/03/14 05:49:46;;;;;;;6.50;4.20;;;8.60;97.00;;;;;;5055934;28;20489;-49
2022/03/14 05:52:14;;;;;;;8.33;4.10;;;8.50;97.20;;;;;;5055611;28;20525;-49
2022/03/14 05:54:41;;;;;;;7.00;3.90;;;8.50;97.10;;;;;;5056106;28;20940;-49
2022/03/14 05:57:08;;;;;;;4.67;3.40;;;8.50;97.20;;;;;;5059948;28;20494;-50
2022/03/14 05:59:35;;;;;;;8.07;3.33;;;8.50;97.00;;;;;;5029341;28;20477;-49
2022/03/14 06:02:03;;;;;;;5.43;4.07;;;8.60;97.10;;;;;;5051330;28;20525;-48
2022/03/14 06:04:30;;;;;;;5.70;2.97;;;8.60;97.20;;;;;;5066125;28;20489;-48
2022/03/14 06:06:57;;;;;;;4.67;2.90;;;8.70;97.00;;;;;;5059892;28;20497;-48
2022/03/14 06:09:25;;;;;;;9.17;3.10;;;8.60;97.00;;;;;;5060142;28;20470;-48
2022/03/14 06:11:52;;;;;;;3.23;2.93;;;8.70;97.00;;;;;;5058544;28;20577;-48
2022/03/14 06:14:19;;;;;;;4.53;3.73;;;8.70;96.90;;;;;;5058104;28;20504;-48
2022/03/14 06:16:46;;;;;;;21.50;3.90;;;8.70;97.20;;;;;;5060448;28;21104;-48
2022/03/14 06:19:14;;;;;;;6.53;4.03;;;8.70;97.00;;;;;;5057861;28;20580;-52
2022/03/14 06:21:41;;;;;;;6.97;3.73;;;8.70;97.10;;;;;;5059765;28;20489;-48
2022/03/14 06:24:09;;;;;;;8.77;4.83;;;8.70;97.10;;;;;;5052461;28;20489;-49
2022/03/14 06:26:36;;;;;;;11.77;4.77;;;8.60;97.00;;;;;;5060204;28;20583;-48
2022/03/14 06:29:03;;;;;;;8.87;4.30;;;8.70;96.90;;;;;;5058886;28;23057;-49
2022/03/14 06:31:31;;;;;;;6.33;3.77;;;8.80;97.00;;;;;;5060339;28;20480;-48
2022/03/14 06:33:58;;;;;;;3.93;2.70;;;8.80;96.70;;;;;;5039532;28;21023;-50
2022/03/14 06:36:26;;;;;;;13.23;5.03;;;8.70;96.70;;;;;;5060235;28;20495;-49
2022/03/14 06:38:55;;;;;;;11.17;3.00;;;8.60;96.70;;;;;;5054987;28;20481;-48
2022/03/14 06:41:24;;;;;;;5.73;2.77;;;8.80;96.90;;;;;;5056849;28;20481;-49
2022/03/14 06:43:52;;;;;;;5.40;2.37;;;8.80;96.80;;;;;;5061765;28;20487;-48
2022/03/14 06:46:19;;;;;;;7.30;2.03;;;8.80;96.50;;;;;;5061107;28;20480;-51
2022/03/14 06:48:46;;;;;;;3.97;2.17;;;8.60;96.60;;;;;;5058400;28;20588;-48
2022/03/14 06:51:13;;;;;;;5.40;3.20;;;8.70;96.70;;;;;;5055094;28;21061;-48
2022/03/14 06:53:42;;;;;;;11.67;3.90;;;8.60;96.70;;;;;;5059746;28;20484;-50
2022/03/14 06:56:08;;;;;;;4.27;2.50;;;8.60;96.80;;;;;;5046392;28;20545;-48
2022/03/14 06:58:35;;;;;;;3.90;2.10;;;8.70;96.80;;;;;;5067078;28;20524;-49
2022/03/14 07:01:02;;;;;;;6.77;3.00;;;8.70;96.60;;;;;;5064209;28;20523;-49
2022/03/14 07:03:28;;;;;;;19.03;2.97;;;8.60;97.00;;;;;;5054316;28;20490;-49
2022/03/14 07:05:55;;;;;;;11.43;2.80;;;8.70;96.90;;;;;;5056703;28;21231;-49
2022/03/14 07:08:22;;;;;;;6.90;2.57;;;8.80;97.20;;;;;;5057837;28;20558;-52
2022/03/14 07:10:50;;;;;;;16.43;3.10;;;8.80;97.10;;;;;;5059152;28;20482;-50
2022/03/14 07:13:16;;;;;;;2.37;1.17;;;8.80;96.90;;;;;;5060460;28;20499;-49
2022/03/14 07:15:43;;;;;;;10.00;3.47;;;8.80;96.70;;;;;;5058902;28;20477;-50
2022/03/14 07:18:11;;;;;;;5.23;2.30;;;8.80;96.90;;;;;;5057907;28;20573;-50
2022/03/14 07:20:38;;;;;;;8.77;3.00;;;8.80;96.80;;;;;;5057844;28;20594;-50
2022/03/14 07:23:06;;;;;;;17.93;3.90;;;8.80;97.00;;;;;;5058611;28;20497;-49
2022/03/14 07:25:37;;;;;;;6.80;3.80;;;8.70;97.00;;;;;;5059649;28;20563;-49
2022/03/14 07:28:07;;;;;;;7.57;4.20;;;8.60;97.30;;;;;;5042678;28;20484;-51
2022/03/14 07:30:34;;;;;;;6.00;1.53;;;8.70;97.50;;;;;;5059420;28;20931;-49
2022/03/14 07:33:01;;;;;;;5.23;2.80;;;8.80;97.50;;;;;;5043104;28;20515;-49
2022/03/14 07:35:29;;;;;;;9.40;2.33;;;8.80;97.10;;;;;;5054815;28;20491;-49
2022/03/14 07:37:56;;;;;;;3.00;1.20;;;8.70;97.30;;;;;;5058583;28;20548;-51
2022/03/14 07:40:24;;;;;;;4.50;1.27;;;8.80;96.80;;;;;;5044757;28;20484;-51
2022/03/14 07:42:52;;;;;;;4.07;1.47;;;8.80;96.90;;;;;;5072694;28;20477;-50
2022/03/14 07:45:24;;;;;;;3.50;2.40;;;8.80;96.60;;;;;;5058043;28;20481;-49
2022/03/14 07:47:51;;;;;;;8.27;2.20;;;8.80;97.00;;;;;;5057958;28;20580;-50
2022/03/14 07:50:19;;;;;;;6.97;2.80;;;8.70;96.80;;;;;;5056641;28;20837;-52
2022/03/14 07:52:47;;;;;;;1.93;1.43;;;8.80;96.90;;;;;;5061536;28;20580;-51
2022/03/14 07:55:14;;;;;;;4.07;2.50;;;8.80;97.10;;;;;;5051567;28;20482;-49
2022/03/14 07:57:42;;;;;;;10.73;3.23;;;8.80;96.80;;;;;;5070845;28;20487;-49
2022/03/14 08:00:11;;;;;;;4.60;1.50;;;8.90;96.90;;;;;;5055013;28;20482;-50
2022/03/14 08:02:40;;;;;;;7.10;2.77;;;8.80;96.80;;;;;;5051270;28;20872;-55
2022/03/14 08:05:09;;;;;;;14.20;3.23;;;8.80;96.90;;;;;;5060708;28;20477;-51
2022/03/14 08:07:37;;;;;;;3.47;2.70;;;8.90;97.20;;;;;;5049916;28;21194;-51
2022/03/14 08:10:06;;;;;;;6.43;2.40;;;8.90;97.00;;;;;;5050411;28;20559;-48
2022/03/14 08:12:42;;;;;;;3.60;1.80;;;9.00;97.70;;;;;;5057905;28;20473;-49
2022/03/14 08:15:09;;;;;;;5.20;2.77;;;9.00;97.50;;;;;;5028406;28;20553;-49
2022/03/14 08:17:35;;;;;;;16.07;3.00;;;9.00;97.50;;;;;;5027554;28;20480;-50
2022/03/14 08:20:04;;;;;;;3.43;1.70;;;8.90;97.20;;;;;;5051854;28;20573;-51
2022/03/14 08:22:31;;;;;;;2.13;1.83;;;9.00;96.80;;;;;;5052671;28;20477;-51
2022/03/14 08:24:58;;;;;;;8.47;1.93;;;9.30;97.00;;;;;;5045919;28;20479;-51
2022/03/14 08:27:25;;;;;;;9.17;2.30;;;9.50;96.60;;;;;;5053344;28;20483;-51
2022/03/14 08:29:51;;;;;;;4.33;2.50;;;9.50;96.50;;;;;;5063541;28;21080;-48
2022/03/14 08:32:19;;;;;;;13.03;3.23;;;9.70;96.40;;;;;;5040318;28;20482;-51
2022/03/14 08:34:46;;;;;;;5.10;1.90;;;9.90;96.10;;;;;;5052440;28;20485;-50
2022/03/14 08:37:14;;;;;;;6.57;3.07;;;10.00;95.30;;;;;;5026708;28;20482;-50
2022/03/14 08:39:41;;;;;;;9.90;2.63;;;10.00;94.90;;;;;;5055517;28;20481;-48
2022/03/14 08:42:09;;;;;;;3.43;2.50;;;9.90;96.00;;;;;;5035705;28;20492;-50
2022/03/14 08:44:35;;;;;;;7.13;2.13;;;9.90;95.90;;;;;;5055631;28;20481;-49
2022/03/14 08:47:03;;;;;;;9.00;2.30;;;10.10;95.30;;;;;;5053627;28;20492;-52
2022/03/14 08:49:29;;;;;;;6.10;3.20;;;10.20;95.50;;;;;;5058595;28;20494;-50
2022/03/14 08:51:56;;;;;;;6.10;1.90;;;10.40;95.60;;;;;;5059427;28;20488;-49
2022/03/14 08:54:24;;;;;;;7.00;1.80;;;10.50;94.90;;;;;;5050841;28;20480;-49
2022/03/14 08:56:51;;;;;;;8.30;2.53;;;10.30;93.80;;;;;;5042125;28;20847;-49
2022/03/14 08:59:18;;;;;;;9.57;2.93;;;10.20;94.20;;;;;;5050143;28;20526;-49
2022/03/14 09:01:45;;;;;;;13.03;3.30;;;10.20;94.00;;;;;;5074871;28;20477;-52
2022/03/14 09:04:12;;;;;;;12.20;2.90;;;10.20;94.90;;;;;;5059076;28;20579;-49
2022/03/14 09:06:42;;;;;;;7.10;2.83;;;10.20;94.50;;;;;;5063483;28;20551;-48
2022/03/14 09:09:08;;;;;;;12.77;3.23;;;10.10;93.90;;;;;;5067630;28;20473;-49
2022/03/14 09:11:38;;;;;;;5.90;4.23;;;10.20;95.00;;;;;;5055350;28;21414;-48
2022/03/14 09:14:05;;;;;;;9.27;3.07;;;10.40;94.90;;;;;;5057584;28;20485;-50
2022/03/14 09:16:35;;;;;;;8.40;3.30;;;10.50;94.60;;;;;;5063268;28;20487;-50
2022/03/14 09:19:01;;;;;;;5.40;3.70;;;10.70;94.30;;;;;;5059779;28;20904;-48
2022/03/14 09:21:30;;;;;;;6.33;4.47;;;10.80;93.90;;;;;;5069724;28;20481;-49
2022/03/14 09:23:56;;;;;;;11.03;7.30;;;10.80;93.70;;;;;;5062249;28;21004;-48
2022/03/14 09:26:23;;;;;;;11.03;6.97;;;10.70;93.70;;;;;;5068306;28;20964;-50
2022/03/14 09:28:51;;;;;;;11.47;6.03;;;10.70;94.10;;;;;;5064188;28;20468;-49
2022/03/14 09:31:19;;;;;;;7.03;4.13;;;10.90;94.10;;;;;;5065237;28;20494;-49
2022/03/14 09:33:46;;;;;;;13.10;5.13;;;10.80;93.50;;;;;;5060758;28;20469;-49
2022/03/14 09:36:12;;;;;;;7.47;2.83;;;10.70;94.10;;;;;;5064937;28;21216;-54
2022/03/14 09:38:39;;;;;;;5.37;4.20;;;10.60;93.60;;;;;;5059509;28;20540;-48
2022/03/14 09:41:06;;;;;;;8.60;5.80;;;10.70;93.90;;;;;;5063588;28;20481;-50
2022/03/14 09:43:38;;;;;;;18.70;7.33;;;10.70;94.10;;;;;;5063435;28;20477;-50
2022/03/14 09:46:07;;;;;;;11.43;6.30;;;10.90;94.10;;;;;;5053168;28;20542;-49
2022/03/14 09:48:37;;;;;;;6.73;4.97;;;10.90;93.80;;;;;;5060770;28;20487;-48
2022/03/14 09:51:05;;;;;;;21.73;8.27;;;11.10;93.90;;;;;;5057623;28;20556;-50
2022/03/14 09:53:34;;;;;;;14.70;6.63;;;11.00;93.90;;;;;;5063846;28;20596;-50
2022/03/14 09:56:01;;;;;;;4.27;2.77;;;10.90;93.60;;;;;;5052664;28;20503;-50
2022/03/14 09:58:28;;;;;;;12.63;5.60;;;11.00;93.70;;;;;;5048818;28;20492;-49
2022/03/14 10:00:55;;;;;;;6.83;2.10;;;11.10;93.80;;;;;;5054198;28;20485;-50
2022/03/14 10:03:24;;;;;;;4.53;3.00;;;11.20;93.30;;;;;;5062989;28;20611;-50
2022/03/14 10:05:51;;;;;;;15.50;2.67;;;11.30;93.30;;;;;;5048140;28;20988;-49
2022/03/14 10:08:18;;;;;;;12.90;3.37;;;11.40;92.70;;;;;;5076795;28;20485;-49
2022/03/14 10:10:45;;;;;;;6.67;2.83;;;11.50;93.10;;;;;;5054066;28;21440;-49
2022/03/14 10:13:11;;;;;;;11.73;2.70;;;11.60;93.30;;;;;;5060865;28;20482;-49
2022/03/14 10:15:40;;;;;;;9.03;2.43;;;11.60;93.10;;;;;;5064372;28;20483;-51
2022/03/14 10:18:11;;;;;;;4.20;2.00;;;11.50;92.90;;;;;;5064160;28;20487;-51
2022/03/14 10:20:53;;;;;;;4.70;2.73;;;11.50;92.90;;;;;;5048855;28;20495;-49
2022/03/14 10:23:30;;;;;;;5.87;2.90;;;11.60;92.90;;;;;;5059250;28;20479;-49
2022/03/14 10:25:58;;;;;;;5.47;2.43;;;11.60;92.60;;;;;;5061079;28;20566;-49
2022/03/14 10:28:28;;;;;;;4.40;2.67;;;11.60;93.00;;;;;;5033345;28;20475;-50
2022/03/14 10:30:55;;;;;;;25.33;4.10;;;11.90;93.00;;;;;;5058945;28;20731;-49
2022/03/14 10:33:25;;;;;;;3.93;2.20;;;12.00;92.70;;;;;;5062549;28;20498;-49
2022/03/14 10:35:55;;;;;;;10.47;2.90;;;12.10;91.90;;;;;;5061066;28;20478;-50
2022/03/14 10:38:22;;;;;;;13.03;3.53;;;12.00;91.60;;;;;;5061404;28;20521;-49
2022/03/14 10:40:49;;;;;;;7.83;3.10;;;12.10;91.60;;;;;;5058723;28;21055;-48
2022/03/14 10:43:24;;;;;;;8.60;2.80;;;12.30;92.20;;;;;;5065849;28;20575;-50
2022/03/14 10:45:51;;;;;;;5.43;3.00;;;12.40;91.70;;;;;;5057719;28;21061;-49
2022/03/14 10:48:31;;;;;;;8.67;3.33;;;12.60;92.50;;;;;;5056700;28;20504;-51
2022/03/14 10:51:03;;;;;;;8.17;3.10;;;12.60;90.90;;;;;;5064382;28;20484;-49
2022/03/14 10:53:29;;;;;;;5.93;3.00;;;12.90;91.00;;;;;;5062418;28;20475;-48
2022/03/14 10:55:59;;;;;;;10.53;3.00;;;13.00;90.80;;;;;;5057764;28;20483;-51
2022/03/14 10:58:29;;;;;;;5.63;2.67;;;13.10;90.50;;;;;;5061908;28;20483;-49
2022/03/14 11:00:57;;;;;;;4.37;2.80;;;13.10;90.60;;;;;;5057972;28;21200;-49
2022/03/14 11:03:26;;;;;;;11.93;3.73;;;13.00;90.30;;;;;;5060098;28;20481;-48
2022/03/14 11:05:54;;;;;;;8.90;2.93;;;13.00;90.60;;;;;;5055999;28;25368;-49
2022/03/14 11:08:36;;;;;;;9.03;3.00;;;13.00;90.30;;;;;;5059312;28;20500;-49
2022/03/14 11:11:05;;;;;;;4.07;3.50;;;13.00;90.10;;;;;;5029668;28;20464;-49
2022/03/14 11:13:32;;;;;;;3.93;2.90;;;13.00;89.60;;;;;;5028768;28;20961;-49
2022/03/14 11:15:59;;;;;;;9.03;2.90;;;13.10;90.10;;;;;;5056208;28;20502;-49
2022/03/14 11:18:26;;;;;;;4.93;3.20;;;13.10;89.70;;;;;;5060079;28;21036;-49
2022/03/14 11:20:54;;;;;;;8.33;3.13;;;13.20;90.20;;;;;;5049720;28;20814;-49
2022/03/14 11:23:23;;;;;;;4.20;2.13;;;13.20;88.10;;;;;;5076475;28;20488;-50
2022/03/14 11:25:51;;;;;;;3.73;2.83;;;13.10;86.80;;;;;;5058021;28;20868;-49
2022/03/14 11:28:20;;;;;;;7.37;2.90;;;13.10;87.80;;;;;;5049571;28;20907;-49
2022/03/14 11:30:53;;;;;;;13.70;3.27;;;13.00;87.90;;;;;;5065907;28;20476;-49
2022/03/14 11:33:21;;;;;;;5.13;3.50;;;13.00;88.10;;;;;;5056445;28;20494;-49
2022/03/14 11:35:47;;;;;;;6.70;3.97;;;13.00;88.90;;;;;;5061309;28;20480;-51
2022/03/14 11:38:16;;;;;;;14.93;4.17;;;13.00;88.40;;;;;;5060174;28;20476;-49
2022/03/14 11:40:43;;;;;;;3.07;2.80;;;13.00;88.40;;;;;;5057869;28;20485;-50
2022/03/14 11:43:11;;;;;;;6.87;3.67;;;13.00;88.40;;;;;;5061820;28;20488;-49
2022/03/14 11:45:39;;;;;;;3.83;2.50;;;13.10;88.90;;;;;;5060104;28;20938;-49
2022/03/14 11:48:07;;;;;;;3.83;2.30;;;13.10;88.20;;;;;;5058617;28;20498;-49
2022/03/14 11:50:45;;;;;;;5.80;3.63;;;13.40;88.70;;;;;;5054591;28;20561;-49
2022/03/14 11:53:19;;;;;;;7.60;3.43;;;13.40;87.00;;;;;;5019301;28;20857;-49
2022/03/14 11:55:56;;;;;;;6.17;2.90;;;13.50;88.00;;;;;;5061045;28;20700;-49
2022/03/14 11:58:56;;;;;;;5.70;2.87;;;13.50;87.50;;;;;;5060168;28;20487;-50
2022/03/14 12:01:24;;;;;;;8.30;2.77;;;13.50;86.70;;;;;;5047941;28;20480;-50
2022/03/14 12:03:52;;;;;;;4.57;2.40;;;13.50;87.20;;;;;;5066411;28;20479;-50
2022/03/14 12:06:58;;;;;;;5.40;2.63;;;13.40;86.20;;;;;;5025612;28;20487;-49
2022/03/14 12:12:31;;;;;;;4.27;3.50;;;13.30;86.50;;;;;;5016945;27;20554;-49
2022/03/14 12:14:59;;;;;;;8.13;4.00;;;13.30;86.60;;;;;;5024981;28;21010;-49
2022/03/14 12:17:28;;;;;;;4.77;3.90;;;13.30;87.40;;;;;;5021069;28;20496;-49
2022/03/14 12:19:57;;;;;;;7.40;3.60;;;13.40;86.40;;;;;;5008094;28;20474;-49
2022/03/14 12:22:44;;;;;;;5.00;3.07;;;13.40;86.70;;;;;;5001023;28;20513;-49
2022/03/14 12:25:13;;;;;;;5.60;3.30;;;13.50;87.50;;;;;;4998425;28;20982;-49
2022/03/14 12:27:42;;;;;;;9.30;3.60;;;13.60;87.40;;;;;;5015348;28;20478;-48
2022/03/14 12:30:31;;;;;;;4.90;3.70;;;13.70;86.30;;;;;;5018418;28;20478;-48
2022/03/14 12:33:00;;;;;;;10.57;3.77;;;13.80;85.10;;;;;;5017230;28;21017;-48
2022/03/14 12:35:33;;;;;;;12.40;4.03;;;13.80;85.10;;;;;;5013988;28;21002;-48
2022/03/14 12:38:12;;;;;;;7.47;2.07;;;13.80;84.30;;;;;;5019751;28;20977;-48
2022/03/14 12:40:46;;;;;;;9.87;5.90;;;14.00;84.20;;;;;;5015708;28;20486;-48
2022/03/14 12:43:22;;;;;;;22.10;4.50;;;14.20;83.10;;;;;;5020160;28;20487;-48
2022/03/14 12:45:50;;;;;;;3.53;2.77;;;14.30;84.10;;;;;;5018039;28;21043;-48
2022/03/14 12:48:19;;;;;;;4.53;3.60;;;;;;;;;;5016082;28;20479;-48
2022/03/14 12:51:07;;;;;;;5.30;2.80;;;15.00;84.50;;;;;;5003102;28;20474;-48
2022/03/14 12:53:50;;;;;;;5.77;2.70;;;15.10;80.00;;;;;;5013166;28;20475;-48
2022/03/14 12:56:20;;;;;;;10.70;3.40;;;15.40;81.40;;;;;;5015066;28;20879;-48
2022/03/14 12:58:58;;;;;;;7.90;4.53;;;15.80;82.40;;;;;;5020177;28;20678;-48
2022/03/14 13:01:26;;;;;;;3.70;1.00;;;15.90;83.30;;;;;;5007148;28;20471;-50